Time;durP1;ratioP1;P1;durP2;ratioP2;P2;SDS_P1;SDS_P2;PMS_P1;PMS_P2;Temp;Humidity;BMP_temperature;BMP_pressure;BME280_temperature;BME280_humidity;BME280_pressure;Samples;Min_cycle;Max_cycle;Signal;HPM_P1;HPM_P2
2021/07/09 00:01:11;;;;;;;8.13;5.00;;;;;;;17.31;77.86;101873.66;5024086;28;20401;-77
2021/07/09 00:03:38;;;;;;;7.93;4.43;;;;;;;17.30;77.88;101872.00;5021406;28;20032;-76
2021/07/09 00:06:04;;;;;;;6.32;4.35;;;;;;;17.33;77.28;101873.47;5023370;28;20013;-76
2021/07/09 00:08:30;;;;;;;8.25;4.68;;;;;;;17.32;77.27;101862.16;5022156;28;20029;-77
2021/07/09 00:10:55;;;;;;;7.20;4.75;;;;;;;17.31;77.31;101855.31;5026758;28;20026;-76
2021/07/09 00:13:21;;;;;;;7.13;4.93;;;;;;;17.27;77.92;101854.03;5026640;28;20041;-76
2021/07/09 00:15:47;;;;;;;8.75;5.68;;;;;;;17.24;78.53;101853.56;5034040;28;20036;-77
2021/07/09 00:18:12;;;;;;;11.55;6.70;;;;;;;17.18;79.08;101864.72;5024257;28;20040;-76
2021/07/09 00:20:38;;;;;;;8.55;4.57;;;;;;;17.12;79.48;101861.81;5025059;28;20418;-75
2021/07/09 00:23:04;;;;;;;7.38;4.63;;;;;;;17.12;79.64;101867.06;5037900;28;20036;-76
2021/07/09 00:25:29;;;;;;;11.73;6.75;;;;;;;17.13;79.19;101865.25;5025431;28;20771;-77
2021/07/09 00:27:55;;;;;;;8.68;5.03;;;;;;;17.08;79.25;101859.69;5026007;28;20511;-75
2021/07/09 00:30:20;;;;;;;7.57;4.93;;;;;;;17.07;79.20;101865.94;5005221;28;20390;-75
2021/07/09 00:32:46;;;;;;;11.45;5.55;;;;;;;17.06;79.31;101861.69;5039973;28;20037;-77
2021/07/09 00:35:11;;;;;;;15.02;6.10;;;;;;;17.02;80.07;101870.88;5037278;28;20029;-76
2021/07/09 00:37:37;;;;;;;10.82;6.55;;;;;;;16.99;80.24;101866.81;5025886;28;20030;-74
2021/07/09 00:40:07;;;;;;;12.40;5.75;;;;;;;16.97;80.77;101871.41;5026756;28;20033;-77
2021/07/09 00:42:33;;;;;;;8.10;5.13;;;;;;;17.01;80.48;101874.47;5024959;28;20026;-77
2021/07/09 00:45:00;;;;;;;9.07;5.50;;;;;;;17.04;79.95;101871.53;5028898;28;20140;-75
2021/07/09 00:47:25;;;;;;;11.35;5.85;;;;;;;17.06;79.57;101875.59;5032832;28;20022;-76
2021/07/09 00:49:50;;;;;;;9.93;5.28;;;;;;;17.08;79.71;101872.81;5036353;28;20738;-77
2021/07/09 00:52:17;;;;;;;9.70;5.93;;;;;;;17.10;79.66;101869.03;5010985;28;20030;-76
2021/07/09 00:54:42;;;;;;;8.35;5.30;;;;;;;17.12;79.19;101864.44;5028952;28;20928;-76
2021/07/09 00:57:10;;;;;;;9.85;5.90;;;;;;;17.14;79.09;101864.28;5017669;28;20041;-76
2021/07/09 00:59:35;;;;;;;10.60;5.60;;;;;;;17.16;79.04;101867.53;5042080;28;20029;-77
2021/07/09 01:02:01;;;;;;;9.98;6.13;;;;;;;17.12;79.13;101867.06;5016997;28;20017;-77
2021/07/09 01:04:27;;;;;;;10.25;5.93;;;;;;;17.09;79.55;101866.59;5032761;28;20033;-74
2021/07/09 01:06:52;;;;;;;12.10;6.68;;;;;;;17.01;79.94;101861.38;5027265;28;20029;-76
2021/07/09 01:09:18;;;;;;;9.85;5.03;;;;;;;16.99;80.26;101860.72;5027742;28;20041;-76
2021/07/09 01:11:45;;;;;;;12.73;6.28;;;;;;;16.97;80.41;101862.72;5032997;28;20044;-77
2021/07/09 01:14:10;;;;;;;9.75;6.05;;;;;;;16.95;80.36;101857.63;5013387;28;20029;-76
2021/07/09 01:16:36;;;;;;;12.35;6.57;;;;;;;16.92;80.93;101858.81;5035511;28;20496;-77
2021/07/09 01:19:05;;;;;;;14.18;6.53;;;;;;;16.93;81.06;101862.25;5031558;28;20052;-76
2021/07/09 01:21:30;;;;;;;11.63;6.07;;;;;;;16.93;80.78;101857.84;5033044;28;20044;-76
2021/07/09 01:24:04;;;;;;;14.70;7.65;;;;;;;16.96;80.54;101858.47;5033863;28;20488;-75
2021/07/09 01:26:30;;;;;;;12.80;7.15;;;;;;;16.96;80.77;101855.84;5023913;28;20379;-76
2021/07/09 01:28:56;;;;;;;11.70;7.78;;;;;;;17.00;80.33;101857.13;5035408;28;20666;-75
2021/07/09 01:31:21;;;;;;;12.70;5.93;;;;;;;17.02;80.17;101861.22;5033562;28;20032;-75
2021/07/09 01:33:47;;;;;;;14.63;7.72;;;;;;;17.03;80.16;101855.00;5015230;28;20112;-76
2021/07/09 01:36:13;;;;;;;10.07;6.47;;;;;;;17.02;80.36;101855.97;5049354;28;20024;-77
2021/07/09 01:38:38;;;;;;;9.50;6.45;;;;;;;17.02;80.25;101855.97;5026651;28;20055;-76
2021/07/09 01:41:04;;;;;;;9.95;6.90;;;;;;;17.04;80.17;101850.56;5037883;28;20405;-76
2021/07/09 01:43:31;;;;;;;8.05;5.95;;;;;;;17.05;79.60;101854.81;5014890;28;20033;-74
2021/07/09 01:45:58;;;;;;;11.50;6.80;;;;;;;17.05;79.83;101857.44;5036823;28;20025;-77
2021/07/09 01:48:24;;;;;;;11.52;7.30;;;;;;;17.03;80.04;101856.81;5024517;28;20061;-76
2021/07/09 01:50:51;;;;;;;13.30;8.02;;;;;;;16.99;80.10;101845.84;5030911;28;20040;-76
2021/07/09 01:53:16;;;;;;;14.23;7.18;;;;;;;16.99;80.17;101848.47;5030609;28;20041;-75
2021/07/09 01:55:42;;;;;;;10.73;7.22;;;;;;;17.00;80.22;101847.47;5027233;28;20017;-77
2021/07/09 01:58:07;;;;;;;11.75;7.18;;;;;;;17.02;79.92;101836.81;5030305;28;20029;-76
2021/07/09 02:00:34;;;;;;;10.05;6.13;;;;;;;17.03;79.70;101838.47;5028292;28;20064;-76
2021/07/09 02:02:59;;;;;;;11.30;6.18;;;;;;;17.05;79.26;101841.72;5014157;28;20116;-77
2021/07/09 02:05:25;;;;;;;11.82;7.38;;;;;;;17.04;79.13;101843.50;5024642;28;20107;-74
2021/07/09 02:07:55;;;;;;;12.50;6.93;;;;;;;17.05;79.30;101846.97;5017934;28;20525;-76
2021/07/09 02:10:24;;;;;;;15.48;7.05;;;;;;;17.03;79.47;101836.66;5037596;28;20383;-76
2021/07/09 02:12:54;;;;;;;14.10;7.20;;;;;;;17.00;79.64;101834.38;5014573;28;20036;-76
2021/07/09 02:15:23;;;;;;;14.15;7.90;;;;;;;16.99;79.70;101842.41;5027860;28;20053;-75
2021/07/09 02:17:49;;;;;;;13.27;7.88;;;;;;;16.98;79.80;101841.59;5019130;28;20033;-76
2021/07/09 02:20:17;;;;;;;17.60;9.98;;;;;;;16.95;79.93;101851.59;5034663;28;20033;-76
2021/07/09 02:22:43;;;;;;;16.25;10.23;;;;;;;16.89;80.13;101846.03;5016450;28;20033;-77
2021/07/09 02:25:09;;;;;;;16.10;9.65;;;;;;;16.86;80.25;101846.41;5030546;28;20025;-77
2021/07/09 02:27:37;;;;;;;19.52;11.02;;;;;;;16.88;80.52;101846.25;5025003;28;20033;-76
2021/07/09 02:30:05;;;;;;;17.17;11.40;;;;;;;16.85;80.67;101843.97;5018065;28;20052;-77
2021/07/09 02:32:31;;;;;;;16.73;10.02;;;;;;;16.83;80.76;101844.13;5029294;28;20037;-75
2021/07/09 02:34:56;;;;;;;12.48;8.98;;;;;;;16.83;80.90;101841.50;5019241;28;20569;-76
2021/07/09 02:37:22;;;;;;;15.43;9.50;;;;;;;16.83;80.72;101836.28;5039870;28;20037;-77
2021/07/09 02:39:47;;;;;;;20.00;10.00;;;;;;;16.83;80.60;101849.38;5021224;28;20084;-77
2021/07/09 02:42:13;;;;;;;19.30;10.25;;;;;;;16.82;80.75;101839.03;5018131;28;20060;-76
2021/07/09 02:44:39;;;;;;;16.08;10.13;;;;;;;16.79;81.02;101834.16;5031718;28;20025;-76
2021/07/09 02:47:04;;;;;;;17.88;10.90;;;;;;;16.79;81.22;101836.75;5032633;28;20041;-77
2021/07/09 02:49:30;;;;;;;20.42;10.82;;;;;;;16.76;81.31;101832.66;5038464;28;20058;-77
2021/07/09 02:51:55;;;;;;;18.00;11.85;;;;;;;16.74;81.35;101829.41;5015114;28;20034;-76
2021/07/09 02:54:21;;;;;;;18.98;10.52;;;;;;;16.73;81.18;101833.03;5024848;28;20029;-75
2021/07/09 02:56:48;;;;;;;14.68;9.30;;;;;;;16.74;81.08;101834.66;5026804;28;20167;-75
2021/07/09 02:59:14;;;;;;;19.83;13.50;;;;;;;16.72;81.05;101839.25;5020738;28;20490;-76
2021/07/09 03:01:42;;;;;;;14.65;9.77;;;;;;;16.70;81.14;101839.41;5037064;28;20425;-76
2021/07/09 03:04:10;;;;;;;17.05;12.10;;;;;;;16.72;81.19;101841.84;5024364;28;20038;-77
2021/07/09 03:06:37;;;;;;;22.73;13.02;;;;;;;16.76;80.63;101831.84;5021196;28;20408;-77
2021/07/09 03:09:04;;;;;;;19.35;10.75;;;;;;;16.71;80.95;101829.78;5028583;28;20029;-75
2021/07/09 03:11:30;;;;;;;17.65;11.73;;;;;;;16.70;81.01;101833.38;5031575;28;20040;-77
2021/07/09 03:13:56;;;;;;;17.13;12.02;;;;;;;16.68;81.30;101836.16;5027270;28;20017;-76
2021/07/09 03:16:21;;;;;;;18.60;11.73;;;;;;;16.68;81.14;101828.28;5012229;28;20036;-76
2021/07/09 03:18:47;;;;;;;19.13;11.90;;;;;;;16.67;81.29;101831.91;5022468;28;20041;-75
2021/07/09 03:21:13;;;;;;;17.73;9.80;;;;;;;16.69;81.19;101835.16;5027090;28;20045;-75
2021/07/09 03:23:39;;;;;;;15.07;11.27;;;;;;;16.70;80.79;101831.56;5011205;28;20063;-77
2021/07/09 03:26:04;;;;;;;16.20;10.85;;;;;;;16.71;80.70;101829.78;5031625;28;20057;-76
2021/07/09 03:28:30;;;;;;;15.90;9.85;;;;;;;16.70;80.73;101822.88;5033804;28;20504;-76
2021/07/09 03:30:55;;;;;;;16.70;10.80;;;;;;;16.71;80.60;101827.16;5042638;28;20034;-77
2021/07/09 03:33:21;;;;;;;24.15;13.25;;;;;;;16.70;81.04;101839.41;5015465;28;20045;-77
2021/07/09 03:35:46;;;;;;;18.40;10.95;;;;;;;16.70;80.88;101839.41;5031550;28;20516;-77
2021/07/09 03:38:12;;;;;;;22.20;11.98;;;;;;;16.69;80.93;101839.59;5032608;28;20649;-76
2021/07/09 03:40:38;;;;;;;19.75;13.02;;;;;;;16.68;80.98;101838.75;5033249;28;20041;-77
2021/07/09 03:43:03;;;;;;;22.05;12.27;;;;;;;16.67;81.30;101833.69;5010691;28;20021;-75
2021/07/09 03:45:29;;;;;;;20.05;11.77;;;;;;;16.65;81.14;101833.06;5023503;28;20033;-77
2021/07/09 03:47:56;;;;;;;15.65;11.18;;;;;;;16.66;81.29;101837.31;5016184;28;20037;-77
2021/07/09 03:50:22;;;;;;;23.90;13.45;;;;;;;16.65;81.16;101835.66;5017582;28;20496;-76
2021/07/09 03:52:48;;;;;;;24.95;13.88;;;;;;;16.64;81.08;101834.06;5018477;28;20096;-76
2021/07/09 03:55:14;;;;;;;21.88;13.27;;;;;;;16.63;81.06;101833.25;5023058;28;20482;-76
2021/07/09 03:57:40;;;;;;;25.23;13.55;;;;;;;16.64;81.19;101842.72;5017407;28;20037;-77
2021/07/09 04:00:08;;;;;;;19.27;12.50;;;;;;;16.64;81.42;101849.75;5029529;28;20041;-76
2021/07/09 04:02:39;;;;;;;25.95;14.02;;;;;;;16.63;81.51;101845.50;5032575;28;20056;-76
2021/07/09 04:05:06;;;;;;;22.95;13.60;;;;;;;16.64;81.71;101849.75;5023974;28;20060;-76
2021/07/09 04:07:31;;;;;;;22.00;13.45;;;;;;;16.63;81.74;101845.50;5033195;28;20029;-77
2021/07/09 04:09:57;;;;;;;24.13;15.23;;;;;;;16.62;81.85;101844.69;5032006;28;20529;-76
2021/07/09 04:12:22;;;;;;;30.20;14.77;;;;;;;16.65;81.77;101848.75;5036524;28;20513;-75
2021/07/09 04:14:48;;;;;;;26.95;17.98;;;;;;;16.64;81.79;101850.56;5034242;28;20646;-76
2021/07/09 04:17:13;;;;;;;25.25;16.38;;;;;;;16.62;81.66;101843.88;5034541;28;20034;-76
2021/07/09 04:19:39;;;;;;;22.58;16.02;;;;;;;16.65;81.41;101843.53;5018647;28;20037;-77
2021/07/09 04:22:04;;;;;;;29.10;17.80;;;;;;;16.70;81.34;101847.25;5025929;28;20033;-74
2021/07/09 04:24:30;;;;;;;33.92;18.85;;;;;;;16.79;80.82;101844.63;5009144;28;20037;-76
2021/07/09 04:26:56;;;;;;;28.65;18.90;;;;;;;16.68;80.88;101848.44;5030735;28;20029;-76
2021/07/09 04:29:21;;;;;;;30.08;18.85;;;;;;;16.64;81.12;101852.38;5068199;22;20076;-69
2021/07/09 04:31:47;;;;;;;32.60;20.08;;;;;;;16.60;81.30;101845.84;5052270;28;20036;-69
2021/07/09 04:34:12;;;;;;;25.33;18.60;;;;;;;16.60;81.33;101853.72;5031361;28;20399;-68
2021/07/09 04:36:38;;;;;;;25.63;17.10;;;;;;;16.56;81.56;101850.63;5058143;28;20036;-70
2021/07/09 04:39:03;;;;;;;32.30;19.20;;;;;;;16.53;81.79;101851.75;5022810;28;20037;-69
2021/07/09 04:41:29;;;;;;;29.58;19.92;;;;;;;16.55;81.75;101852.41;5024492;28;20036;-70
2021/07/09 04:43:54;;;;;;;33.80;18.67;;;;;;;16.55;81.48;101849.78;5041403;28;20513;-69
2021/07/09 04:46:20;;;;;;;25.33;17.00;;;;;;;16.54;81.61;101853.41;5034057;28;20037;-70
2021/07/09 04:48:45;;;;;;;28.45;18.27;;;;;;;16.58;81.52;101853.88;5059524;28;20025;-70
2021/07/09 04:51:12;;;;;;;25.70;16.50;;;;;;;16.58;81.86;101855.69;5043839;28;20055;-69
2021/07/09 04:53:37;;;;;;;28.27;17.73;;;;;;;16.60;81.53;101858.94;5055720;28;20082;-69
2021/07/09 04:56:03;;;;;;;28.08;19.67;;;;;;;16.61;81.26;101858.75;5053757;28;20036;-69
2021/07/09 04:58:29;;;;;;;34.55;19.80;;;;;;;16.64;81.27;101857.63;5045937;28;20479;-70
2021/07/09 05:00:54;;;;;;;27.23;18.58;;;;;;;16.63;81.44;101858.59;5033464;28;20039;-69
2021/07/09 05:03:19;;;;;;;24.48;14.77;;;;;;;16.61;81.83;101857.94;5030762;28;20035;-69
2021/07/09 05:05:45;;;;;;;28.63;18.33;;;;;;;16.69;81.68;101858.75;5032165;28;20048;-70
2021/07/09 05:08:11;;;;;;;30.35;18.63;;;;;;;16.73;81.70;101865.25;5035266;28;20056;-70
2021/07/09 05:10:36;;;;;;;33.10;20.17;;;;;;;16.72;81.11;101855.75;5025902;28;20021;-70
2021/07/09 05:13:06;;;;;;;24.30;16.67;;;;;;;16.70;81.70;101855.13;5036727;28;20029;-68
2021/07/09 05:15:33;;;;;;;35.42;18.67;;;;;;;16.70;81.57;101867.41;5030406;28;20020;-69
2021/07/09 05:17:58;;;;;;;29.05;18.02;;;;;;;16.71;81.30;101866.44;5031472;28;20035;-70
2021/07/09 05:20:24;;;;;;;29.33;19.48;;;;;;;16.71;81.40;101866.44;5036538;28;20029;-70
2021/07/09 05:22:49;;;;;;;25.05;17.45;;;;;;;16.70;81.52;101862.97;5034044;28;20167;-70
2021/07/09 05:25:15;;;;;;;28.45;17.92;;;;;;;16.74;81.26;101871.31;5037011;28;20093;-70
2021/07/09 05:27:40;;;;;;;28.77;18.77;;;;;;;16.73;81.25;101870.50;5020579;28;20025;-70
2021/07/09 05:30:07;;;;;;;31.25;18.77;;;;;;;16.79;80.85;101876.84;5050127;28;20033;-70
2021/07/09 05:32:33;;;;;;;34.05;18.15;;;;;;;16.80;80.61;101869.81;5044656;28;20037;-70
2021/07/09 05:34:59;;;;;;;32.75;19.67;;;;;;;16.91;80.39;101864.22;5062325;28;20024;-69
2021/07/09 05:37:26;;;;;;;28.45;18.95;;;;;;;16.86;80.71;101867.38;5052365;28;20031;-70
2021/07/09 05:39:51;;;;;;;30.02;18.75;;;;;;;16.80;81.00;101861.94;5057287;28;20494;-69
2021/07/09 05:42:17;;;;;;;30.63;19.40;;;;;;;16.79;81.15;101869.00;5058373;28;20052;-69
2021/07/09 05:44:46;;;;;;;34.88;20.02;;;;;;;16.74;82.06;101873.94;5047342;28;20573;-69
2021/07/09 05:47:12;;;;;;;29.35;18.67;;;;;;;16.81;82.08;101874.06;5046405;28;20057;-70
2021/07/09 05:49:38;;;;;;;34.22;19.73;;;;;;;16.83;82.45;101880.78;5053439;28;20036;-69
2021/07/09 05:52:04;;;;;;;31.17;16.83;;;;;;;16.81;82.33;101881.94;5037580;28;20029;-69
2021/07/09 05:54:29;;;;;;;27.58;17.08;;;;;;;16.82;82.55;101876.56;5034432;28;20017;-69
2021/07/09 05:56:55;;;;;;;33.53;19.42;;;;;;;16.85;82.29;101883.25;5031490;28;20430;-69
2021/07/09 05:59:21;;;;;;;30.23;19.10;;;;;;;16.87;82.44;101882.06;5048394;28;20029;-69
2021/07/09 06:01:46;;;;;;;37.70;19.30;;;;;;;16.90;82.37;101884.38;5016330;28;20036;-69
2021/07/09 06:04:13;;;;;;;32.88;18.92;;;;;;;16.95;81.97;101885.66;5029906;28;20036;-69
2021/07/09 06:06:40;;;;;;;34.15;18.85;;;;;;;17.05;81.87;101878.41;5048969;28;20040;-69
2021/07/09 06:09:06;;;;;;;35.83;19.70;;;;;;;17.02;81.95;101889.22;5048291;28;20108;-69
2021/07/09 06:11:31;;;;;;;30.67;17.42;;;;;;;16.97;81.85;101881.88;5030801;28;20108;-69
2021/07/09 06:13:57;;;;;;;30.33;18.92;;;;;;;16.95;82.35;101891.69;5048773;28;20083;-69
2021/07/09 06:16:23;;;;;;;29.75;16.40;;;;;;;16.91;81.71;101888.63;5032092;28;20051;-69
2021/07/09 06:18:49;;;;;;;29.55;17.48;;;;;;;16.94;81.20;101882.22;5031424;28;20124;-69
2021/07/09 06:21:15;;;;;;;32.08;15.85;;;;;;;16.90;81.10;101883.56;5031012;28;20040;-69
2021/07/09 06:23:41;;;;;;;33.42;18.90;;;;;;;16.97;80.94;101887.13;5046906;28;20438;-69
2021/07/09 06:26:07;;;;;;;28.80;16.58;;;;;;;16.97;80.54;101889.75;5036215;28;20041;-69
2021/07/09 06:28:33;;;;;;;27.42;14.63;;;;;;;16.97;80.97;101895.00;5017488;28;20037;-71
2021/07/09 06:30:58;;;;;;;34.38;17.33;;;;;;;17.05;81.24;101892.31;5038738;28;20039;-69
2021/07/09 06:33:24;;;;;;;27.55;16.10;;;;;;;17.06;81.31;101893.94;5032310;28;20045;-70
2021/07/09 06:35:49;;;;;;;34.00;17.80;;;;;;;17.16;80.54;101901.59;5035548;28;20028;-69
2021/07/09 06:38:15;;;;;;;28.33;16.45;;;;;;;17.27;80.31;101916.09;5034336;28;20020;-70
2021/07/09 06:40:43;;;;;;;28.10;16.25;;;;;;;17.20;80.25;101907.31;5059602;28;20033;-69
2021/07/09 06:43:11;;;;;;;30.25;16.42;;;;;;;17.15;80.16;101905.19;5059508;28;20036;-69
2021/07/09 06:45:40;;;;;;;28.90;16.55;;;;;;;17.22;79.76;101908.75;5044303;28;20028;-69
2021/07/09 06:48:07;;;;;;;33.88;17.55;;;;;;;17.18;79.63;101910.09;5026653;28;20499;-69
2021/07/09 06:50:33;;;;;;;25.67;14.30;;;;;;;17.23;79.59;101915.63;5039122;28;20363;-69
2021/07/09 06:52:58;;;;;;;35.85;17.60;;;;;;;17.30;79.40;101918.38;5032085;28;20744;-69
2021/07/09 06:55:24;;;;;;;30.42;15.48;;;;;;;17.31;79.03;101912.16;5039740;28;20443;-69
2021/07/09 06:57:50;;;;;;;24.15;14.27;;;;;;;17.35;78.75;101913.44;5026362;28;20025;-69
2021/07/09 07:00:17;;;;;;;27.55;13.65;;;;;;;17.44;78.36;101916.81;5030172;28;20029;-69
2021/07/09 07:02:46;;;;;;;21.88;13.13;;;;;;;17.44;78.09;101912.41;5051266;28;20024;-69
2021/07/09 07:05:12;;;;;;;25.00;13.35;;;;;;;17.41;78.31;101914.56;5046859;28;20036;-69
2021/07/09 07:07:38;;;;;;;30.17;14.68;;;;;;;17.54;77.62;101913.94;5032157;28;20039;-69
2021/07/09 07:10:05;;;;;;;24.45;13.70;;;;;;;17.55;77.72;101915.59;5023046;28;20017;-68
2021/07/09 07:12:30;;;;;;;20.75;13.02;;;;;;;17.57;77.84;101916.22;5046262;28;20131;-69
2021/07/09 07:14:56;;;;;;;29.80;15.48;;;;;;;17.62;77.28;101919.97;5023085;28;20054;-69
2021/07/09 07:17:21;;;;;;;23.00;14.18;;;;;;;17.66;76.74;101918.59;5042738;28;20040;-69
2021/07/09 07:19:47;;;;;;;29.50;14.65;;;;;;;17.60;77.01;101921.13;5043909;28;20025;-69
2021/07/09 07:22:13;;;;;;;26.05;13.57;;;;;;;17.61;76.66;101928.00;5007460;28;20021;-69
2021/07/09 07:24:39;;;;;;;25.65;14.23;;;;;;;17.57;77.37;101921.47;5008991;28;20070;-69
2021/07/09 07:27:05;;;;;;;25.88;14.52;;;;;;;17.66;76.82;101926.47;5042495;28;20033;-69
2021/07/09 07:29:30;;;;;;;29.65;15.50;;;;;;;17.69;76.39;101915.66;5026671;28;20067;-69
2021/07/09 07:31:56;;;;;;;19.25;12.20;;;;;;;17.65;76.85;101924.03;5042163;28;20064;-70
2021/07/09 07:34:21;;;;;;;30.05;15.70;;;;;;;17.67;76.28;101927.31;5025087;28;20487;-70
2021/07/09 07:36:48;;;;;;;23.60;11.55;;;;;;;17.73;76.29;101921.34;5042377;28;20048;-69
2021/07/09 07:39:13;;;;;;;23.25;12.43;;;;;;;17.81;76.26;101928.34;5027779;28;20032;-69
2021/07/09 07:41:39;;;;;;;24.85;14.27;;;;;;;17.79;75.28;101927.72;5030009;28;20267;-69
2021/07/09 07:44:06;;;;;;;23.58;13.63;;;;;;;17.84;75.19;101922.75;5028409;28;20033;-69
2021/07/09 07:46:31;;;;;;;17.73;11.60;;;;;;;17.88;75.32;101927.50;5027205;28;20307;-69
2021/07/09 07:48:57;;;;;;;28.20;14.18;;;;;;;18.04;75.16;101923.88;5047232;28;20025;-69
2021/07/09 07:51:24;;;;;;;24.45;13.93;;;;;;;18.07;74.70;101918.28;5046761;28;20044;-69
2021/07/09 07:53:52;;;;;;;23.08;11.98;;;;;;;18.09;74.77;101918.13;5028366;28;20036;-69
2021/07/09 07:56:18;;;;;;;27.15;14.77;;;;;;;18.16;73.84;101920.84;5028134;28;20033;-69
2021/07/09 07:58:44;;;;;;;24.95;13.43;;;;;;;18.31;73.40;101912.97;5029795;28;20477;-69
2021/07/09 08:01:10;;;;;;;23.08;11.90;;;;;;;18.32;72.83;101914.63;5049071;28;20136;-70
2021/07/09 08:03:36;;;;;;;20.63;12.40;;;;;;;18.43;72.82;101911.53;5025204;28;20564;-69
2021/07/09 08:06:03;;;;;;;21.25;13.38;;;;;;;18.51;72.86;101914.06;5045142;28;20025;-69
2021/07/09 08:08:29;;;;;;;20.70;11.52;;;;;;;18.57;72.52;101918.63;5049710;28;20043;-69
2021/07/09 08:10:55;;;;;;;22.27;14.40;;;;;;;18.67;71.92;101928.84;5032551;28;20391;-69
2021/07/09 08:13:21;;;;;;;19.70;10.82;;;;;;;18.74;72.06;101927.13;5036607;28;20025;-70
2021/07/09 08:15:46;;;;;;;22.15;11.68;;;;;;;18.78;72.09;101927.53;5033818;28;20029;-69
2021/07/09 08:18:12;;;;;;;20.23;11.75;;;;;;;18.82;71.63;101929.66;5032617;28;20091;-70
2021/07/09 08:20:42;;;;;;;20.67;10.40;;;;;;;18.89;71.26;101929.72;5038991;28;20025;-70
2021/07/09 08:23:07;;;;;;;22.88;11.05;;;;;;;19.23;69.80;101926.50;5019084;28;20032;-70
2021/07/09 08:25:33;;;;;;;19.38;12.13;;;;;;;19.68;68.36;101922.88;5032873;28;20036;-70
2021/07/09 08:27:58;;;;;;;20.83;12.70;;;;;;;20.04;66.36;101928.03;5034692;28;20176;-70
2021/07/09 08:30:24;;;;;;;17.73;11.02;;;;;;;20.40;65.86;101912.09;5026423;28;20589;-69
2021/07/09 08:32:49;;;;;;;13.65;8.93;;;;;;;20.48;65.15;101919.00;5050872;28;20036;-69
2021/07/09 08:35:15;;;;;;;17.23;9.25;;;;;;;20.36;65.13;101924.03;5033745;28;20411;-70
2021/07/09 08:37:42;;;;;;;15.95;8.80;;;;;;;20.46;64.50;101917.59;5021623;28;20035;-70
2021/07/09 08:40:08;;;;;;;18.02;9.80;;;;;;;20.47;64.04;101921.84;5013464;28;20025;-70
2021/07/09 08:42:38;;;;;;;12.82;8.43;;;;;;;20.31;63.89;101925.59;5048950;28;20059;-69
2021/07/09 08:45:06;;;;;;;11.32;6.60;;;;;;;20.17;64.91;101925.53;5048736;28;20060;-70
2021/07/09 08:47:33;;;;;;;14.73;8.40;;;;;;;20.30;64.25;101921.34;5033009;28;20328;-70
2021/07/09 08:50:07;;;;;;;14.10;7.97;;;;;;;20.63;62.76;101926.81;5031238;28;20028;-70
2021/07/09 08:52:36;;;;;;;13.45;8.90;;;;;;;21.07;60.39;101924.75;5051473;28;20040;-70
2021/07/09 08:55:04;;;;;;;12.02;7.07;;;;;;;21.30;59.88;101921.75;5052679;28;20462;-70
2021/07/09 08:57:30;;;;;;;15.05;9.43;;;;;;;21.34;60.53;101915.91;5031760;28;20033;-71
2021/07/09 08:59:56;;;;;;;17.92;9.95;;;;;;;21.28;59.46;101908.75;5036517;28;20052;-71
2021/07/09 09:02:26;;;;;;;17.38;9.95;;;;;;;21.06;59.72;101915.19;5032190;28;20025;-70
2021/07/09 09:04:53;;;;;;;15.55;9.13;;;;;;;20.88;61.24;101918.41;5032328;28;20123;-71
2021/07/09 09:07:18;;;;;;;18.20;9.70;;;;;;;21.08;60.70;101916.66;5031233;28;20036;-70
2021/07/09 09:09:44;;;;;;;13.80;7.82;;;;;;;21.20;61.68;101908.97;5057366;28;20048;-71
2021/07/09 09:12:14;;;;;;;16.52;10.43;;;;;;;21.58;60.90;101903.16;5032939;28;20037;-71
2021/07/09 09:14:42;;;;;;;15.10;9.00;;;;;;;22.23;58.75;101903.28;5027518;28;20029;-70
2021/07/09 09:17:34;;;;;;;12.00;7.88;;;;;;;23.01;56.24;101896.28;5052684;28;20128;-71
2021/07/09 09:20:16;;;;;;;12.45;8.40;;;;;;;23.75;53.74;101900.03;5029209;28;20029;-70
2021/07/09 09:22:47;;;;;;;8.70;6.28;;;;;;;24.33;53.10;101898.09;5033640;28;20157;-70
2021/07/09 09:25:13;;;;;;;17.65;11.50;;;;;;;24.51;53.38;101892.78;5033051;28;20029;-71
2021/07/09 09:27:39;;;;;;;13.13;8.80;;;;;;;25.02;52.07;101893.34;5039663;28;20051;-71
2021/07/09 09:30:12;;;;;;;16.98;11.02;;;;;;;25.09;49.05;101890.59;5039921;28;20044;-71
2021/07/09 09:32:48;;;;;;;11.50;7.60;;;;;;;24.38;51.65;101893.72;5023079;28;20119;-71
2021/07/09 09:35:29;;;;;;;25.23;10.65;;;;;;;23.66;52.47;101896.06;5015504;28;20442;-70
2021/07/09 09:38:01;;;;;;;17.65;11.02;;;;;;;23.40;54.42;101899.75;5023204;28;20506;-70
2021/07/09 09:40:29;;;;;;;16.00;8.10;;;;;;;23.02;55.36;101895.25;5025686;28;20059;-70
2021/07/09 09:42:55;;;;;;;14.77;9.13;;;;;;;22.67;55.92;101896.47;5016526;28;20016;-69
2021/07/09 09:45:24;;;;;;;11.80;7.93;;;;;;;22.50;57.35;101892.66;5035099;28;20082;-70
2021/07/09 09:47:50;;;;;;;12.77;8.52;;;;;;;22.47;58.81;101893.91;5038171;28;20112;-70
2021/07/09 09:50:18;;;;;;;11.98;8.65;;;;;;;23.04;52.67;101894.06;5037528;28;20045;-71
2021/07/09 09:52:52;;;;;;;12.70;8.02;;;;;;;23.68;51.86;101884.22;5054099;28;20021;-70
2021/07/09 09:55:31;;;;;;;10.60;6.78;;;;;;;24.08;50.90;101883.06;5030888;28;20044;-70
2021/07/09 09:58:15;;;;;;;10.30;5.28;;;;;;;24.64;49.85;101883.88;5035241;28;20045;-71
2021/07/09 10:00:51;;;;;;;13.63;6.85;;;;;;;24.48;48.45;101885.25;5025815;28;20071;-70
2021/07/09 10:03:18;;;;;;;10.68;6.63;;;;;;;24.19;47.99;101881.53;5033637;28;20079;-69
2021/07/09 10:05:47;;;;;;;6.95;4.70;;;;;;;23.89;50.19;101877.75;5026974;28;20426;-69
2021/07/09 10:08:16;;;;;;;7.20;5.60;;;;;;;24.04;49.36;101876.59;5038827;28;20037;-69
2021/07/09 10:10:43;;;;;;;7.05;5.40;;;;;;;24.17;46.42;101870.34;5036248;28;20028;-70
2021/07/09 10:13:13;;;;;;;10.40;6.50;;;;;;;24.35;46.78;101859.72;5033121;28;20484;-70
2021/07/09 10:15:40;;;;;;;10.77;6.18;;;;;;;24.78;46.57;101858.78;5059308;28;20413;-71
2021/07/09 10:18:10;;;;;;;14.13;6.32;;;;;;;24.76;47.20;101858.19;5038027;28;20063;-70
2021/07/09 10:20:35;;;;;;;10.70;5.82;;;;;;;24.88;50.55;101866.19;5043224;28;20561;-69
2021/07/09 10:23:02;;;;;;;10.20;5.18;;;;;;;25.02;46.88;101856.22;5036586;28;20033;-71
2021/07/09 10:25:28;;;;;;;10.25;5.35;;;;;;;25.05;44.42;101856.56;5033816;28;20094;-69
2021/07/09 10:27:54;;;;;;;6.82;4.63;;;;;;;25.30;46.22;101852.94;5035186;28;20104;-69
2021/07/09 10:30:19;;;;;;;6.82;5.22;;;;;;;25.10;46.16;101842.59;5035123;28;20032;-69
2021/07/09 10:32:48;;;;;;;8.93;4.72;;;;;;;25.08;44.31;101849.19;5053228;28;20029;-69
2021/07/09 10:35:42;;;;;;;7.00;5.22;;;;;;;25.17;44.36;101842.53;5031283;28;20116;-69
2021/07/09 10:38:18;;;;;;;8.25;4.00;;;;;;;25.47;44.34;101838.97;5038796;28;20031;-70
2021/07/09 10:40:45;;;;;;;6.97;4.43;;;;;;;25.43;43.49;101842.09;5031902;28;20124;-70
2021/07/09 10:43:10;;;;;;;6.03;3.67;;;;;;;25.52;44.71;101852.38;5056261;28;20515;-69
2021/07/09 10:45:40;;;;;;;5.80;2.92;;;;;;;25.23;43.51;101842.44;5025721;28;20036;-70
2021/07/09 10:48:11;;;;;;;6.03;3.85;;;;;;;25.28;43.77;101847.06;5033933;28;20032;-70
2021/07/09 10:50:40;;;;;;;9.93;3.78;;;;;;;25.38;47.15;101849.16;5046819;28;20036;-71
2021/07/09 10:53:09;;;;;;;7.18;3.60;;;;;;;25.56;45.66;101842.91;5021402;28;20124;-70
2021/07/09 10:55:41;;;;;;;10.85;4.10;;;;;;;25.70;45.54;101833.66;5053080;28;20032;-70
2021/07/09 10:58:06;;;;;;;7.30;4.72;;;;;;;25.47;45.24;101842.47;5045016;28;20121;-69
2021/07/09 11:01:02;;;;;;;7.45;4.95;;;;;;;25.35;46.02;101839.78;5048350;28;20514;-70
2021/07/09 11:03:31;;;;;;;7.55;5.53;;;;;;;25.82;46.21;101845.09;5039077;28;20041;-70
2021/07/09 11:06:07;;;;;;;8.32;5.68;;;;;;;25.87;43.30;101832.97;5032855;28;20039;-70
2021/07/09 11:08:32;;;;;;;5.72;4.00;;;;;;;26.01;46.22;101842.31;5023523;28;20036;-70
2021/07/09 11:11:12;;;;;;;8.27;4.28;;;;;;;26.09;44.76;101834.00;5011351;28;20128;-69
2021/07/09 11:13:41;;;;;;;4.90;3.72;;;;;;;26.09;44.66;101839.31;5028435;28;20037;-69